KCDS/CDS METAR and TAF weather

Enter ICAO airport designator
Station Type Date Time Source
KCDS METAR 2018/01/22 10:53 UTC NOAA

KCDS 221053Z AUTO 30014KT 10SM CLR 02/M07 A2996 RMK AO2 SLP141 T00221072


Station Type Date Time Source
KCDS Decoded METAR 2018/01/22 10:53 UTC NOAA

CHILDRESS MUNICIPAL AIRPORT, TX, United States (KCDS) 34-26N 100-17W 594M
Jan 22, 2018 - 05:53 AM EST / 2018.01.22 1053 UTC
Wind: from the WNW (300 degrees) at 16 MPH (14 KT):0
Visibility: 10 mile(s):0
Sky conditions: clear
Temperature: 36.0 F (2.2 C)
Dew Point: 19.0 F (-7.2 C)
Relative Humidity: 49%
Pressure (altimeter): 29.96 in. Hg (1014 hPa)
ob: KCDS 221053Z AUTO 30014KT 10SM CLR 02/M07 A2996 RMK AO2 SLP141 T00221072
cycle: 11

Station Type Date Time Source
KCDS TAF 2018/01/22 12:22 UTC NOAA

TAF KCDS 221120Z 2212/2312 32015KT P6SM SKC
FM221600 32024G34KT P6SM SKC
FM230000 31007KT P6SM SKC


Example: see airport list